< < Back
Terminal Aerodrome Forecast


Current Version              Previous Versions:   1  2  3  4  5  6  7  8  9  

Terminal Aerodrome Forecast

240
FTUS42 KGSP 301257 AAA
TAFCLT
TAF AMD
KCLT 301257Z 3013/3112 01008KT P6SM BKN011
     FM301400 01009KT P6SM VCSH BKN020
     FM301600 02006KT P6SM BKN045
      TEMPO 3020/3024 4SM -TSRA OVC025CB
     FM310700 01003KT P6SM BKN030
     FM311100 01004KT P6SM BKN020=



Latest METAR

728
SAUS70 KWBC 301400 RRC
MTRCLT
METAR KCLT 301352Z 35008KT 10SM BKN013 23/18 A3003 RMK AO2 SLP160
T02280178


USA.gov is the U.S. government's official web portal to all federal, state and local government web resources and services.